sensor_id;sensor_type;location;lat;lon;timestamp;pressure;altitude;pressure_sealevel;temperature;humidity
48606;BME280;8482;54.396;18.590;2023-03-01T05:07:57;102567.53;;;2.57;81.15
48606;BME280;8482;54.396;18.590;2023-03-01T05:10:25;102565.78;;;2.56;81.14
48606;BME280;8482;54.396;18.590;2023-03-01T05:12:52;102565.81;;;2.55;81.42
48606;BME280;8482;54.396;18.590;2023-03-01T05:15:19;102565.81;;;2.55;81.07
48606;BME280;8482;54.396;18.590;2023-03-01T05:17:48;102564.09;;;2.54;81.12
48606;BME280;8482;54.396;18.590;2023-03-01T05:20:14;102561.50;;;2.51;81.43
48606;BME280;8482;54.396;18.590;2023-03-01T05:22:40;102570.25;;;2.50;81.62
48606;BME280;8482;54.396;18.590;2023-03-01T05:25:06;102563.28;;;2.49;81.03
48606;BME280;8482;54.396;18.590;2023-03-01T05:27:33;102572.03;;;2.48;80.95
48606;BME280;8482;54.396;18.590;2023-03-01T05:29:59;102563.31;;;2.45;81.10
48606;BME280;8482;54.396;18.590;2023-03-01T05:32:40;102564.25;;;2.44;81.40
48606;BME280;8482;54.396;18.590;2023-03-01T05:35:06;102556.38;;;2.44;81.28
48606;BME280;8482;54.396;18.590;2023-03-01T05:37:32;102559.84;;;2.45;81.48
48606;BME280;8482;54.396;18.590;2023-03-01T05:39:58;102562.47;;;2.45;81.92
48606;BME280;8482;54.396;18.590;2023-03-01T05:42:24;102559.84;;;2.45;81.65
48606;BME280;8482;54.396;18.590;2023-03-01T05:44:50;102559.91;;;2.43;81.82
48606;BME280;8482;54.396;18.590;2023-03-01T05:47:15;102564.25;;;2.44;81.51
48606;BME280;8482;54.396;18.590;2023-03-01T05:49:41;102557.28;;;2.43;81.40
48606;BME280;8482;54.396;18.590;2023-03-01T05:52:08;102559.91;;;2.43;81.52
48606;BME280;8482;54.396;18.590;2023-03-01T05:54:33;102553.72;;;2.46;81.12
48606;BME280;8482;54.396;18.590;2023-03-01T05:56:59;102558.09;;;2.45;81.68
48606;BME280;8482;54.396;18.590;2023-03-01T05:59:25;102558.97;;;2.46;81.55
48606;BME280;8482;54.396;18.590;2023-03-01T06:01:51;102568.53;;;2.49;81.50
48606;BME280;8482;54.396;18.590;2023-03-01T06:04:17;102568.53;;;2.49;81.50
48606;BME280;8482;54.396;18.590;2023-03-01T06:06:42;102570.28;;;2.48;81.51
48606;BME280;8482;54.396;18.590;2023-03-01T06:09:08;102572.88;;;2.50;81.56
48606;BME280;8482;54.396;18.590;2023-03-01T06:11:36;102585.06;;;2.52;81.40
48606;BME280;8482;54.396;18.590;2023-03-01T06:14:03;102592.03;;;2.53;81.04
48606;BME280;8482;54.396;18.590;2023-03-01T06:16:29;102582.44;;;2.54;81.24
48606;BME280;8482;54.396;18.590;2023-03-01T06:18:55;102587.66;;;2.54;81.07
48606;BME280;8482;54.396;18.590;2023-03-01T06:21:21;102587.66;;;2.54;81.43
48606;BME280;8482;54.396;18.590;2023-03-01T06:23:47;102580.66;;;2.56;81.46
48606;BME280;8482;54.396;18.590;2023-03-01T06:26:12;102576.31;;;2.55;81.66
48606;BME280;8482;54.396;18.590;2023-03-01T06:28:38;102580.63;;;2.57;81.26
48606;BME280;8482;54.396;18.590;2023-03-01T06:31:04;102589.31;;;2.59;81.28
48606;BME280;8482;54.396;18.590;2023-03-01T06:33:34;102587.56;;;2.60;81.33
48606;BME280;8482;54.396;18.590;2023-03-01T06:35:59;102594.53;;;2.61;80.86
48606;BME280;8482;54.396;18.590;2023-03-01T06:38:25;102605.00;;;2.63;80.54
48606;BME280;8482;54.396;18.590;2023-03-01T06:40:53;102607.56;;;2.66;81.00
48606;BME280;8482;54.396;18.590;2023-03-01T06:43:20;102611.03;;;2.68;81.13
48606;BME280;8482;54.396;18.590;2023-03-01T06:45:46;102620.63;;;2.69;80.70
48606;BME280;8482;54.396;18.590;2023-03-01T06:48:12;102609.25;;;2.70;80.63
48606;BME280;8482;54.396;18.590;2023-03-01T06:50:37;102619.69;;;2.71;80.83
48606;BME280;8482;54.396;18.590;2023-03-01T06:53:04;102611.84;;;2.71;81.03
48606;BME280;8482;54.396;18.590;2023-03-01T06:55:30;102609.22;;;2.71;80.52
48606;BME280;8482;54.396;18.590;2023-03-01T06:58:03;102618.81;;;2.72;80.46
48606;BME280;8482;54.396;18.590;2023-03-01T07:00:29;102611.84;;;2.71;80.18
48606;BME280;8482;54.396;18.590;2023-03-01T07:02:59;102607.50;;;2.69;80.47
48606;BME280;8482;54.396;18.590;2023-03-01T07:05:27;102604.03;;;2.68;80.27
48606;BME280;8482;54.396;18.590;2023-03-01T07:07:54;102611.88;;;2.70;80.46
48606;BME280;8482;54.396;18.590;2023-03-01T07:10:21;102608.31;;;2.72;80.32
48606;BME280;8482;54.396;18.590;2023-03-01T07:12:46;102611.81;;;2.73;80.42
48606;BME280;8482;54.396;18.590;2023-03-01T07:15:12;102608.28;;;2.75;80.24
48606;BME280;8482;54.396;18.590;2023-03-01T07:17:40;102604.72;;;2.78;80.34
48606;BME280;8482;54.396;18.590;2023-03-01T07:20:06;102612.56;;;2.83;80.21
48606;BME280;8482;54.396;18.590;2023-03-01T07:22:32;102620.34;;;2.86;80.56
48606;BME280;8482;54.396;18.590;2023-03-01T07:24:58;102614.19;;;2.88;80.55
48606;BME280;8482;54.396;18.590;2023-03-01T07:27:24;102615.91;;;2.91;80.60
48606;BME280;8482;54.396;18.590;2023-03-01T07:29:50;102614.97;;;2.95;80.29
48606;BME280;8482;54.396;18.590;2023-03-01T07:32:16;102606.22;;;2.96;79.93
48606;BME280;8482;54.396;18.590;2023-03-01T07:34:42;102602.63;;;3.00;79.95
48606;BME280;8482;54.396;18.590;2023-03-01T07:37:08;102603.47;;;3.04;79.91
48606;BME280;8482;54.396;18.590;2023-03-01T07:39:34;102603.38;;;3.09;79.46
48606;BME280;8482;54.396;18.590;2023-03-01T07:41:59;102612.91;;;3.13;80.16
48606;BME280;8482;54.396;18.590;2023-03-01T07:44:25;102617.19;;;3.17;79.71
48606;BME280;8482;54.396;18.590;2023-03-01T07:46:51;102618.88;;;3.21;79.58
48606;BME280;8482;54.396;18.590;2023-03-01T07:49:22;102617.06;;;3.25;79.53
48606;BME280;8482;54.396;18.590;2023-03-01T07:51:47;102622.22;;;3.31;78.88
48606;BME280;8482;54.396;18.590;2023-03-01T07:54:13;102617.78;;;3.34;79.33
48606;BME280;8482;54.396;18.590;2023-03-01T07:56:39;102616.81;;;3.38;79.64
48606;BME280;8482;54.396;18.590;2023-03-01T07:59:06;102604.47;;;3.44;79.21
48606;BME280;8482;54.396;18.590;2023-03-01T08:01:32;102604.38;;;3.48;78.95
48606;BME280;8482;54.396;18.590;2023-03-01T08:03:57;102597.31;;;3.52;78.41
48606;BME280;8482;54.396;18.590;2023-03-01T08:06:23;102601.56;;;3.58;78.51
48606;BME280;8482;54.396;18.590;2023-03-01T08:08:49;102593.66;;;3.61;78.63
48606;BME280;8482;54.396;18.590;2023-03-01T08:11:15;102584.81;;;3.65;78.39
48606;BME280;8482;54.396;18.590;2023-03-01T08:13:43;102587.34;;;3.70;78.30
48606;BME280;8482;54.396;18.590;2023-03-01T08:16:14;102587.25;;;3.74;77.88
48606;BME280;8482;54.396;18.590;2023-03-01T08:18:41;102588.97;;;3.75;77.29
48606;BME280;8482;54.396;18.590;2023-03-01T08:21:11;102597.59;;;3.82;77.03
48606;BME280;8482;54.396;18.590;2023-03-01T08:23:38;102592.28;;;3.85;76.96
48606;BME280;8482;54.396;18.590;2023-03-01T08:28:32;102596.44;;;3.95;77.10
48606;BME280;8482;54.396;18.590;2023-03-01T08:30:57;102605.06;;;4.02;76.85
48606;BME280;8482;54.396;18.590;2023-03-01T08:33:23;102600.59;;;4.06;76.93
48606;BME280;8482;54.396;18.590;2023-03-01T08:35:49;102601.41;;;4.09;76.61
48606;BME280;8482;54.396;18.590;2023-03-01T08:38:15;102596.06;;;4.14;76.74
48606;BME280;8482;54.396;18.590;2023-03-01T08:40:41;102594.22;;;4.18;76.29
48606;BME280;8482;54.396;18.590;2023-03-01T08:43:06;102602.88;;;4.23;76.06
48606;BME280;8482;54.396;18.590;2023-03-01T08:45:32;102592.25;;;4.27;76.00
48606;BME280;8482;54.396;18.590;2023-03-01T08:47:58;102586.06;;;4.30;75.76
48606;BME280;8482;54.396;18.590;2023-03-01T08:50:24;102587.63;;;4.37;75.64
48606;BME280;8482;54.396;18.590;2023-03-01T08:52:50;102581.41;;;4.41;75.30
48606;BME280;8482;54.396;18.590;2023-03-01T08:55:16;102583.91;;;4.48;75.64
48606;BME280;8482;54.396;18.590;2023-03-01T08:57:43;102589.91;;;4.53;75.21
48606;BME280;8482;54.396;18.590;2023-03-01T09:00:10;102579.25;;;4.59;74.99
48606;BME280;8482;54.396;18.590;2023-03-01T09:02:37;102591.38;;;4.65;74.88
48606;BME280;8482;54.396;18.590;2023-03-01T09:05:04;102584.28;;;4.68;74.61
48606;BME280;8482;54.396;18.590;2023-03-01T09:07:30;102585.94;;;4.72;74.17
48606;BME280;8482;54.396;18.590;2023-03-01T09:09:56;102584.88;;;4.80;73.79
48606;BME280;8482;54.396;18.590;2023-03-01T09:12:22;102594.28;;;4.88;74.44
48606;BME280;8482;54.396;18.590;2023-03-01T09:14:48;102592.41;;;4.94;74.14
48606;BME280;8482;54.396;18.590;2023-03-01T09:17:13;102588.78;;;4.99;74.18
48606;BME280;8482;54.396;18.590;2023-03-01T09:19:39;102594.69;;;5.07;74.10
48606;BME280;8482;54.396;18.590;2023-03-01T09:22:05;102595.44;;;5.13;73.65
48606;BME280;8482;54.396;18.590;2023-03-01T09:24:31;102605.75;;;5.20;73.91
48606;BME280;8482;54.396;18.590;2023-03-01T09:26:57;102592.47;;;5.25;72.74
48606;BME280;8482;54.396;18.590;2023-03-01T09:29:23;102608.06;;;5.33;73.32
48606;BME280;8482;54.396;18.590;2023-03-01T09:31:49;102598.25;;;5.38;73.01
48606;BME280;8482;54.396;18.590;2023-03-01T09:34:15;102595.47;;;5.44;72.48
48606;BME280;8482;54.396;18.590;2023-03-01T09:36:44;102597.13;;;5.48;71.74
48606;BME280;8482;54.396;18.590;2023-03-01T09:39:10;102590.84;;;5.52;71.94
48606;BME280;8482;54.396;18.590;2023-03-01T09:41:59;102591.59;;;5.58;71.55
48606;BME280;8482;54.396;18.590;2023-03-01T09:44:45;102581.00;;;5.59;71.47
48606;BME280;8482;54.396;18.590;2023-03-01T09:47:25;102586.19;;;5.62;71.44
48606;BME280;8482;54.396;18.590;2023-03-01T09:50:14;102589.50;;;5.69;70.96
48606;BME280;8482;54.396;18.590;2023-03-01T09:53:06;102593.66;;;5.76;71.35
48606;BME280;8482;54.396;18.590;2023-03-01T09:55:50;102588.16;;;5.86;71.35
48606;BME280;8482;54.396;18.590;2023-03-01T10:06:35;102600.41;;;6.17;69.63
48606;BME280;8482;54.396;18.590;2023-03-01T10:09:13;102606.38;;;6.23;69.71
48606;BME280;8482;54.396;18.590;2023-03-01T10:11:55;102605.28;;;6.31;69.12
48606;BME280;8482;54.396;18.590;2023-03-01T10:17:24;102600.53;;;6.42;68.40
48606;BME280;8482;54.396;18.590;2023-03-01T10:19:51;102593.28;;;6.49;68.48
48606;BME280;8482;54.396;18.590;2023-03-01T10:22:29;102595.75;;;6.55;68.12
48606;BME280;8482;54.396;18.590;2023-03-01T10:25:02;102597.34;;;6.59;67.52
48606;BME280;8482;54.396;18.590;2023-03-01T10:27:52;102590.25;;;6.61;67.28
48606;BME280;8482;54.396;18.590;2023-03-01T10:30:39;102585.72;;;6.65;67.09
48606;BME280;8482;54.396;18.590;2023-03-01T10:33:26;102589.13;;;6.68;66.63
48606;BME280;8482;54.396;18.590;2023-03-01T10:35:53;102593.38;;;6.74;67.05
48606;BME280;8482;54.396;18.590;2023-03-01T10:38:21;102586.09;;;6.81;66.23
48606;BME280;8482;54.396;18.590;2023-03-01T10:41:04;102591.16;;;6.87;66.12
48606;BME280;8482;54.396;18.590;2023-03-01T10:43:45;102597.09;;;6.94;66.53
48606;BME280;8482;54.396;18.590;2023-03-01T10:46:35;102587.25;;;6.99;65.77
48606;BME280;8482;54.396;18.590;2023-03-01T10:49:23;102585.31;;;7.04;66.07
48606;BME280;8482;54.396;18.590;2023-03-01T10:51:53;102589.63;;;7.07;66.04
48606;BME280;8482;54.396;18.590;2023-03-01T10:54:26;102584.88;;;7.16;65.64
48606;BME280;8482;54.396;18.590;2023-03-01T10:57:37;102580.22;;;7.25;64.98
48606;BME280;8482;54.396;18.590;2023-03-01T11:03:02;102580.78;;;7.33;64.65
48606;BME280;8482;54.396;18.590;2023-03-01T11:05:28;102580.59;;;7.38;64.12
48606;BME280;8482;54.396;18.590;2023-03-01T11:07:59;102585.78;;;7.41;64.30
48606;BME280;8482;54.396;18.590;2023-03-01T11:10:34;102590.06;;;7.45;63.96
48606;BME280;8482;54.396;18.590;2023-03-01T11:13:15;102575.22;;;7.41;63.74
48606;BME280;8482;54.396;18.590;2023-03-01T11:15:43;102575.22;;;7.41;63.58
48606;BME280;8482;54.396;18.590;2023-03-01T11:18:23;102571.66;;;7.42;63.70
48606;BME280;8482;54.396;18.590;2023-03-01T11:20:55;102575.88;;;7.47;63.79
48606;BME280;8482;54.396;18.590;2023-03-01T11:23:22;102571.31;;;7.51;63.36
48606;BME280;8482;54.396;18.590;2023-03-01T11:25:58;102571.31;;;7.51;63.22
48606;BME280;8482;54.396;18.590;2023-03-01T11:28:27;102572.06;;;7.55;63.23
48606;BME280;8482;54.396;18.590;2023-03-01T11:33:47;102562.31;;;7.57;62.79
48606;BME280;8482;54.396;18.590;2023-03-01T11:36:53;102546.25;;;7.63;62.85
48606;BME280;8482;54.396;18.590;2023-03-01T11:40:24;102560.91;;;7.72;62.58
48606;BME280;8482;54.396;18.590;2023-03-01T11:43:16;102547.53;;;7.75;62.66
48606;BME280;8482;54.396;18.590;2023-03-01T11:51:20;102546.97;;;7.90;62.10
48606;BME280;8482;54.396;18.590;2023-03-01T11:54:43;102550.31;;;7.95;62.16
48606;BME280;8482;54.396;18.590;2023-03-01T11:57:22;102547.34;;;8.03;62.23
48606;BME280;8482;54.396;18.590;2023-03-01T12:03:27;102550.94;;;8.24;61.20
48606;BME280;8482;54.396;18.590;2023-03-01T12:06:12;102548.84;;;8.33;60.84
48606;BME280;8482;54.396;18.590;2023-03-01T12:26:35;102552.72;;;9.10;59.05
48606;BME280;8482;54.396;18.590;2023-03-01T12:29:33;102547.00;;;9.19;58.64
48606;BME280;8482;54.396;18.590;2023-03-01T12:44:05;102527.88;;;9.71;57.10
48606;BME280;8482;54.396;18.590;2023-03-01T12:50:26;102528.84;;;10.07;56.06
48606;BME280;8482;54.396;18.590;2023-03-01T12:52:56;102527.47;;;10.17;55.58
48606;BME280;8482;54.396;18.590;2023-03-01T12:55:32;102526.94;;;10.28;55.06
48606;BME280;8482;54.396;18.590;2023-03-01T12:58:33;102524.78;;;10.36;54.83
48606;BME280;8482;54.396;18.590;2023-03-01T13:07:48;102520.97;;;10.77;53.39
48606;BME280;8482;54.396;18.590;2023-03-01T13:10:34;102515.03;;;10.89;53.06
48606;BME280;8482;54.396;18.590;2023-03-01T13:13:25;102517.81;;;11.04;52.46
48606;BME280;8482;54.396;18.590;2023-03-01T13:15:53;102514.63;;;11.15;51.85
48606;BME280;8482;54.396;18.590;2023-03-01T13:20:59;102506.78;;;11.45;51.70
48606;BME280;8482;54.396;18.590;2023-03-01T13:23:34;102509.28;;;11.64;50.87
48606;BME280;8482;54.396;18.590;2023-03-01T13:34:01;102499.66;;;12.56;49.00
48606;BME280;8482;54.396;18.590;2023-03-01T13:39:28;102495.44;;;13.41;46.81
48606;BME280;8482;54.396;18.590;2023-03-01T13:41:55;102490.69;;;14.15;45.27
48606;BME280;8482;54.396;18.590;2023-03-01T13:44:25;102484.00;;;15.01;43.81
48606;BME280;8482;54.396;18.590;2023-03-01T13:50:01;102496.03;;;17.02;39.37
48606;BME280;8482;54.396;18.590;2023-03-01T13:52:42;102484.88;;;17.74;38.06
48606;BME280;8482;54.396;18.590;2023-03-01T13:57:50;102490.41;;;18.90;35.95
48606;BME280;8482;54.396;18.590;2023-03-01T14:00:37;102490.38;;;19.52;34.57
48606;BME280;8482;54.396;18.590;2023-03-01T14:03:10;102493.19;;;20.11;33.85
48606;BME280;8482;54.396;18.590;2023-03-01T14:05:38;102486.03;;;20.49;32.96
48606;BME280;8482;54.396;18.590;2023-03-01T14:08:13;102488.69;;;20.79;32.52
48606;BME280;8482;54.396;18.590;2023-03-01T14:13:54;102488.75;;;21.07;31.42
48606;BME280;8482;54.396;18.590;2023-03-01T14:19:22;102482.06;;;21.85;30.07
48606;BME280;8482;54.396;18.590;2023-03-01T14:24:55;102479.41;;;22.47;28.97
48606;BME280;8482;54.396;18.590;2023-03-01T14:27:23;102487.28;;;22.67;28.66
48606;BME280;8482;54.396;18.590;2023-03-01T14:30:01;102475.84;;;22.73;28.52
48606;BME280;8482;54.396;18.590;2023-03-01T14:32:31;102472.88;;;22.85;28.42
48606;BME280;8482;54.396;18.590;2023-03-01T14:34:59;102468.00;;;22.96;28.18
48606;BME280;8482;54.396;18.590;2023-03-01T14:37:31;102469.69;;;22.89;27.89
48606;BME280;8482;54.396;18.590;2023-03-01T14:40:00;102473.94;;;22.65;27.85
48606;BME280;8482;54.396;18.590;2023-03-01T14:42:34;102477.59;;;22.56;28.05
48606;BME280;8482;54.396;18.590;2023-03-01T14:45:04;102471.78;;;22.43;28.23
48606;BME280;8482;54.396;18.590;2023-03-01T14:47:35;102472.44;;;22.45;28.03
48606;BME280;8482;54.396;18.590;2023-03-01T14:52:50;102473.66;;;22.77;27.60
48606;BME280;8482;54.396;18.590;2023-03-01T14:55:35;102471.81;;;22.77;27.53
48606;BME280;8482;54.396;18.590;2023-03-01T14:58:14;102468.22;;;22.69;27.26
48606;BME280;8482;54.396;18.590;2023-03-01T15:00:53;102469.38;;;22.22;27.86
48606;BME280;8482;54.396;18.590;2023-03-01T15:03:44;102467.69;;;21.84;28.40
48606;BME280;8482;54.396;18.590;2023-03-01T15:06:18;102467.50;;;21.50;28.81
48606;BME280;8482;54.396;18.590;2023-03-01T15:08:48;102470.41;;;20.82;29.51
48606;BME280;8482;54.396;18.590;2023-03-01T15:11:26;102476.88;;;19.93;30.54
48606;BME280;8482;54.396;18.590;2023-03-01T15:13:53;102469.78;;;18.69;32.21
48606;BME280;8482;54.396;18.590;2023-03-01T15:16:26;102456.78;;;17.46;34.30
48606;BME280;8482;54.396;18.590;2023-03-01T15:19:05;102464.09;;;16.29;36.13
48606;BME280;8482;54.396;18.590;2023-03-01T15:21:38;102469.84;;;15.25;37.97
48606;BME280;8482;54.396;18.590;2023-03-01T15:26:58;102460.13;;;13.52;41.66
48606;BME280;8482;54.396;18.590;2023-03-01T15:29:30;102454.16;;;12.90;42.99
48606;BME280;8482;54.396;18.590;2023-03-01T15:32:20;102449.78;;;12.30;44.59
48606;BME280;8482;54.396;18.590;2023-03-01T15:34:48;102460.91;;;11.74;45.82
48606;BME280;8482;54.396;18.590;2023-03-01T15:37:43;102462.97;;;11.21;47.24
48606;BME280;8482;54.396;18.590;2023-03-01T15:40:30;102454.38;;;10.82;48.60
48606;BME280;8482;54.396;18.590;2023-03-01T15:43:01;102456.06;;;10.49;49.74
48606;BME280;8482;54.396;18.590;2023-03-01T15:45:30;102462.66;;;10.23;50.54
48606;BME280;8482;54.396;18.590;2023-03-01T15:47:58;102462.06;;;9.99;51.39
48606;BME280;8482;54.396;18.590;2023-03-01T15:50:33;102458.63;;;9.79;52.03
48606;BME280;8482;54.396;18.590;2023-03-01T15:53:01;102462.97;;;9.61;53.15
48606;BME280;8482;54.396;18.590;2023-03-01T15:55:32;102459.28;;;9.46;53.62
48606;BME280;8482;54.396;18.590;2023-03-01T15:58:04;102462.63;;;9.30;54.27
48606;BME280;8482;54.396;18.590;2023-03-01T16:00:32;102462.28;;;9.19;55.04
48606;BME280;8482;54.396;18.590;2023-03-01T16:02:59;102473.41;;;9.07;55.51
48606;BME280;8482;54.396;18.590;2023-03-01T16:07:53;102463.25;;;8.77;57.01
48606;BME280;8482;54.396;18.590;2023-03-01T16:10:19;102459.50;;;8.62;57.84
48606;BME280;8482;54.396;18.590;2023-03-01T16:12:46;102452.28;;;8.44;58.50
48606;BME280;8482;54.396;18.590;2023-03-01T16:15:26;102459.72;;;8.35;59.17
48606;BME280;8482;54.396;18.590;2023-03-01T16:17:53;102459.25;;;8.25;60.07
48606;BME280;8482;54.396;18.590;2023-03-01T16:20:24;102454.34;;;8.16;60.53
48606;BME280;8482;54.396;18.590;2023-03-01T16:22:52;102462.72;;;8.05;60.95
48606;BME280;8482;54.396;18.590;2023-03-01T16:25:20;102466.72;;;7.93;61.39
48606;BME280;8482;54.396;18.590;2023-03-01T16:27:49;102470.47;;;7.87;61.62
48606;BME280;8482;54.396;18.590;2023-03-01T16:30:20;102466.47;;;7.77;61.93
48606;BME280;8482;54.396;18.590;2023-03-01T16:32:48;102467.63;;;7.70;62.39
48606;BME280;8482;54.396;18.590;2023-03-01T16:35:18;102466.22;;;7.61;63.23
48606;BME280;8482;54.396;18.590;2023-03-01T16:37:45;102458.47;;;7.56;63.51
48606;BME280;8482;54.396;18.590;2023-03-01T16:40:19;102477.13;;;7.51;63.88
48606;BME280;8482;54.396;18.590;2023-03-01T16:42:49;102472.19;;;7.42;64.28
48606;BME280;8482;54.396;18.590;2023-03-01T16:45:15;102481.09;;;7.40;64.39
48606;BME280;8482;54.396;18.590;2023-03-01T16:47:41;102477.81;;;7.33;64.71
48606;BME280;8482;54.396;18.590;2023-03-01T16:50:08;102472.72;;;7.28;64.84
48606;BME280;8482;54.396;18.590;2023-03-01T16:52:34;102473.81;;;7.23;65.56
48606;BME280;8482;54.396;18.590;2023-03-01T16:55:03;102474.78;;;7.20;65.77
48606;BME280;8482;54.396;18.590;2023-03-01T16:57:29;102474.09;;;7.15;66.16
48606;BME280;8482;54.396;18.590;2023-03-01T16:59:56;102476.91;;;7.10;66.50
48606;BME280;8482;54.396;18.590;2023-03-01T17:02:22;102480.56;;;7.06;66.55
48606;BME280;8482;54.396;18.590;2023-03-01T17:04:55;102486.81;;;7.03;67.02
48606;BME280;8482;54.396;18.590;2023-03-01T17:07:22;102494.03;;;6.98;67.19
48606;BME280;8482;54.396;18.590;2023-03-01T17:09:48;102501.13;;;6.96;67.81
48606;BME280;8482;54.396;18.590;2023-03-01T17:12:15;102502.13;;;6.94;67.67
48606;BME280;8482;54.396;18.590;2023-03-01T17:14:42;102498.63;;;6.93;67.84
48606;BME280;8482;54.396;18.590;2023-03-01T17:17:09;102498.72;;;6.90;68.43
48606;BME280;8482;54.396;18.590;2023-03-01T17:19:36;102498.75;;;6.88;68.30
48606;BME280;8482;54.396;18.590;2023-03-01T17:22:07;102507.72;;;6.84;68.31
48606;BME280;8482;54.396;18.590;2023-03-01T17:24:35;102512.19;;;6.82;68.04
48606;BME280;8482;54.396;18.590;2023-03-01T17:27:02;102509.72;;;6.78;68.22
48606;BME280;8482;54.396;18.590;2023-03-01T17:29:28;102508.00;;;6.77;68.33
48606;BME280;8482;54.396;18.590;2023-03-01T17:31:54;102509.88;;;6.73;68.31
48606;BME280;8482;54.396;18.590;2023-03-01T17:34:22;102519.66;;;6.69;68.09
48606;BME280;8482;54.396;18.590;2023-03-01T17:36:49;102510.16;;;6.64;68.52
48606;BME280;8482;54.396;18.590;2023-03-01T17:39:17;102515.56;;;6.61;68.38
48606;BME280;8482;54.396;18.590;2023-03-01T17:41:51;102526.25;;;6.56;67.93
48606;BME280;8482;54.396;18.590;2023-03-01T17:44:17;102519.31;;;6.53;68.42
48606;BME280;8482;54.396;18.590;2023-03-01T17:46:43;102523.09;;;6.46;68.45
48606;BME280;8482;54.396;18.590;2023-03-01T17:49:09;102527.63;;;6.41;68.28
48606;BME280;8482;54.396;18.590;2023-03-01T17:51:35;102532.16;;;6.37;68.84
48606;BME280;8482;54.396;18.590;2023-03-01T17:54:01;102540.06;;;6.37;68.62
48606;BME280;8482;54.396;18.590;2023-03-01T17:56:27;102546.31;;;6.33;68.92
48606;BME280;8482;54.396;18.590;2023-03-01T17:58:53;102538.50;;;6.30;68.70
48606;BME280;8482;54.396;18.590;2023-03-01T18:01:21;102544.81;;;6.26;68.71
48606;BME280;8482;54.396;18.590;2023-03-01T18:03:51;102540.59;;;6.20;68.68
48606;BME280;8482;54.396;18.590;2023-03-01T18:06:24;102540.78;;;6.14;69.39
48606;BME280;8482;54.396;18.590;2023-03-01T18:08:51;102546.13;;;6.11;69.34
48606;BME280;8482;54.396;18.590;2023-03-01T18:11:23;102540.19;;;6.04;69.61
48606;BME280;8482;54.396;18.590;2023-03-01T18:13:49;102536.84;;;5.99;69.76
48606;BME280;8482;54.396;18.590;2023-03-01T18:16:19;102542.97;;;6.00;69.42
48606;BME280;8482;54.396;18.590;2023-03-01T18:18:45;102550.03;;;5.97;69.58
48606;BME280;8482;54.396;18.590;2023-03-01T18:21:13;102542.28;;;5.93;69.87
48606;BME280;8482;54.396;18.590;2023-03-01T18:23:40;102547.69;;;5.88;69.57
48606;BME280;8482;54.396;18.590;2023-03-01T18:26:09;102533.75;;;5.85;70.19
48606;BME280;8482;54.396;18.590;2023-03-01T18:28:37;102539.03;;;5.85;70.06
48606;BME280;8482;54.396;18.590;2023-03-01T18:31:08;102539.94;;;5.83;70.75
48606;BME280;8482;54.396;18.590;2023-03-01T18:33:37;102543.47;;;5.82;70.50
48606;BME280;8482;54.396;18.590;2023-03-01T18:36:04;102539.09;;;5.81;70.03
48606;BME280;8482;54.396;18.590;2023-03-01T18:38:31;102534.75;;;5.80;69.68
48606;BME280;8482;54.396;18.590;2023-03-01T18:40:57;102542.72;;;5.79;70.16
48606;BME280;8482;54.396;18.590;2023-03-01T18:43:24;102535.78;;;5.75;69.82
48606;BME280;8482;54.396;18.590;2023-03-01T18:45:57;102537.69;;;5.70;69.71
48606;BME280;8482;54.396;18.590;2023-03-01T18:48:24;102536.94;;;5.66;70.02
48606;BME280;8482;54.396;18.590;2023-03-01T18:50:50;102533.44;;;5.65;69.99
48606;BME280;8482;54.396;18.590;2023-03-01T18:53:15;102533.59;;;5.61;70.14
48606;BME280;8482;54.396;18.590;2023-03-01T18:55:41;102536.25;;;5.59;70.36
48606;BME280;8482;54.396;18.590;2023-03-01T18:58:07;102524.09;;;5.55;70.30
48606;BME280;8482;54.396;18.590;2023-03-01T19:00:33;102525.91;;;5.53;69.92
48606;BME280;8482;54.396;18.590;2023-03-01T19:03:00;102533.84;;;5.51;70.39
48606;BME280;8482;54.396;18.590;2023-03-01T19:05:27;102528.69;;;5.48;70.40
48606;BME280;8482;54.396;18.590;2023-03-01T19:07:53;102531.41;;;5.44;70.56
48606;BME280;8482;54.396;18.590;2023-03-01T19:10:19;102532.38;;;5.41;70.68
48606;BME280;8482;54.396;18.590;2023-03-01T19:12:45;102536.81;;;5.39;70.65
48606;BME280;8482;54.396;18.590;2023-03-01T19:15:12;102541.38;;;5.34;70.46
48606;BME280;8482;54.396;18.590;2023-03-01T19:17:43;102545.84;;;5.30;70.52
48606;BME280;8482;54.396;18.590;2023-03-01T19:20:11;102542.44;;;5.27;70.53
48606;BME280;8482;54.396;18.590;2023-03-01T19:22:37;102545.13;;;5.24;70.42
48606;BME280;8482;54.396;18.590;2023-03-01T19:25:04;102542.56;;;5.22;71.38
48606;BME280;8482;54.396;18.590;2023-03-01T19:27:30;102547.91;;;5.19;70.89
48606;BME280;8482;54.396;18.590;2023-03-01T19:29:56;102548.03;;;5.14;70.86
48606;BME280;8482;54.396;18.590;2023-03-01T19:32:21;102553.41;;;5.10;70.38
48606;BME280;8482;54.396;18.590;2023-03-01T19:34:47;102558.72;;;5.08;71.57
48606;BME280;8482;54.396;18.590;2023-03-01T19:37:13;102560.56;;;5.04;71.14
48606;BME280;8482;54.396;18.590;2023-03-01T19:39:41;102553.50;;;5.06;71.42
48606;BME280;8482;54.396;18.590;2023-03-01T19:42:08;102555.28;;;5.06;71.29
48606;BME280;8482;54.396;18.590;2023-03-01T19:44:34;102555.28;;;5.06;72.03
48606;BME280;8482;54.396;18.590;2023-03-01T19:47:00;102556.13;;;5.06;71.04
48606;BME280;8482;54.396;18.590;2023-03-01T19:49:26;102552.72;;;5.03;71.66
48606;BME280;8482;54.396;18.590;2023-03-01T19:51:54;102549.25;;;5.01;71.66
48606;BME280;8482;54.396;18.590;2023-03-01T19:54:20;102551.97;;;4.98;71.22
48606;BME280;8482;54.396;18.590;2023-03-01T19:56:48;102551.16;;;4.96;71.84
48606;BME280;8482;54.396;18.590;2023-03-01T19:59:15;102556.44;;;4.96;71.86
48606;BME280;8482;54.396;18.590;2023-03-01T20:01:44;102561.72;;;4.94;72.06
48606;BME280;8482;54.396;18.590;2023-03-01T20:04:11;102559.13;;;4.93;71.65
48606;BME280;8482;54.396;18.590;2023-03-01T20:06:38;102559.09;;;4.94;71.79